createdAt,value
2022-12-27T00:01:24.900Z,2.2
2022-12-27T00:04:14.114Z,1.3
2022-12-27T00:07:01.802Z,1.1
2022-12-27T00:09:49.500Z,1.5
2022-12-27T00:12:38.282Z,1.4
2022-12-27T00:15:25.495Z,1.5
2022-12-27T00:18:13.257Z,1.7
2022-12-27T00:21:00.575Z,1.4
2022-12-27T00:23:49.755Z,1.5
2022-12-27T00:26:39.674Z,1.6
2022-12-27T00:29:27.072Z,1.6
2022-12-27T00:32:14.308Z,2.4
2022-12-27T00:35:01.631Z,1.5
2022-12-27T00:37:49.618Z,1.6
2022-12-27T00:40:36.933Z,1.3
2022-12-27T00:43:24.995Z,2.3
2022-12-27T00:46:12.489Z,1.5
2022-12-27T00:48:59.929Z,2
2022-12-27T00:51:47.639Z,1.6
2022-12-27T00:54:35.400Z,1.6
2022-12-27T00:57:22.827Z,1.7
2022-12-27T01:00:10.770Z,1.9
2022-12-27T01:02:59.851Z,2.1
2022-12-27T01:05:47.347Z,1.9
2022-12-27T01:08:34.675Z,1.5
2022-12-27T01:11:22.695Z,1.7
2022-12-27T01:14:11.478Z,1.9
2022-12-27T01:16:58.718Z,1.6
2022-12-27T01:19:46.026Z,2
2022-12-27T01:22:33.268Z,1.9
2022-12-27T01:25:20.697Z,1.7
2022-12-27T01:28:08.080Z,1.9
2022-12-27T01:30:55.510Z,1.9
2022-12-27T01:33:42.803Z,1.9
2022-12-27T01:36:30.450Z,1.9
2022-12-27T01:39:17.762Z,2.1
2022-12-27T01:42:05.156Z,2
2022-12-27T01:45:32.567Z,2
2022-12-27T01:48:21.940Z,2.2
2022-12-27T01:51:10.144Z,2.2
2022-12-27T01:53:57.892Z,1.9
2022-12-27T01:56:45.517Z,1.7
2022-12-27T01:59:32.898Z,2
2022-12-27T02:02:21.273Z,2
2022-12-27T02:05:09.092Z,2.1
2022-12-27T02:08:00.218Z,1.7
2022-12-27T02:11:01.256Z,2.3
2022-12-27T02:13:50.239Z,1.7
2022-12-27T02:16:37.653Z,1.9
2022-12-27T02:19:24.946Z,1.7
2022-12-27T02:22:23.255Z,2.1
2022-12-27T02:26:16.624Z,2.3
2022-12-27T02:29:31.389Z,1.9
2022-12-27T02:32:29.084Z,1.9
2022-12-27T02:35:23.714Z,2.2
2022-12-27T02:38:18.456Z,2.4
2022-12-27T02:41:13.444Z,2.1
2022-12-27T02:44:33.648Z,2
2022-12-27T02:47:54.008Z,2.6
2022-12-27T02:51:13.014Z,2.4
2022-12-27T02:56:25.093Z,1.8
2022-12-27T02:59:53.887Z,2.7
2022-12-27T03:03:22.704Z,2.1
2022-12-27T03:06:21.972Z,1.4
2022-12-27T03:09:28.113Z,1.8
2022-12-27T03:12:59.910Z,1.5
2022-12-27T03:16:33.007Z,1.9
2022-12-27T03:19:27.241Z,1.8
2022-12-27T03:24:19.013Z,1.7
2022-12-27T03:27:42.433Z,2.1
2022-12-27T03:35:31.811Z,2.7
2022-12-27T03:38:25.255Z,1.7
2022-12-27T03:41:18.956Z,1.8
2022-12-27T03:44:42.600Z,2.5
2022-12-27T03:47:30.243Z,2.4
2022-12-27T03:50:24.855Z,4.4
2022-12-27T03:53:19.260Z,1.7
2022-12-27T03:56:11.425Z,1.9
2022-12-27T03:58:59.127Z,3.1
2022-12-27T04:01:48.354Z,2
2022-12-27T04:04:35.731Z,4
2022-12-27T04:07:23.703Z,2.8
2022-12-27T04:10:11.182Z,1.9
2022-12-27T04:13:30.645Z,2.1
2022-12-27T04:16:49.651Z,1.5
2022-12-27T04:20:08.657Z,1.6
2022-12-27T04:23:28.345Z,1.9
2022-12-27T04:26:47.403Z,1.6
2022-12-27T04:30:06.477Z,2.3
2022-12-27T04:33:26.728Z,2.3
2022-12-27T04:36:45.827Z,1.7
2022-12-27T04:39:33.217Z,1.7
2022-12-27T04:42:20.485Z,2.6
2022-12-27T04:45:40.199Z,2.4
2022-12-27T04:48:59.919Z,1.4
2022-12-27T04:52:18.913Z,1.8
2022-12-27T04:55:39.867Z,1.6
2022-12-27T04:58:27.159Z,1.7
2022-12-27T05:01:14.853Z,1.6
2022-12-27T05:04:33.629Z,2.4
2022-12-27T05:07:23.069Z,1.7
2022-12-27T05:10:42.271Z,1.6
2022-12-27T05:14:01.462Z,2.4
2022-12-27T05:16:52.698Z,1.9
2022-12-27T05:19:40.030Z,1.2
2022-12-27T05:22:27.283Z,1.6
2022-12-27T05:25:46.638Z,1.7
2022-12-27T05:28:33.904Z,1.6
2022-12-27T05:31:21.380Z,2
2022-12-27T05:34:10.387Z,1.7
2022-12-27T05:36:57.720Z,1.7
2022-12-27T05:39:45.186Z,1.5
2022-12-27T05:42:32.607Z,2.1
2022-12-27T05:45:20.195Z,2
2022-12-27T05:48:07.500Z,1.8
2022-12-27T05:50:54.730Z,2.2
2022-12-27T05:53:42.056Z,1.7
2022-12-27T05:56:30.214Z,2.2
2022-12-27T05:59:20.040Z,2
2022-12-27T06:02:07.421Z,1.9
2022-12-27T06:04:54.844Z,2.1
2022-12-27T06:07:42.181Z,1.8
2022-12-27T06:10:29.445Z,2.1
2022-12-27T06:13:16.827Z,1.8
2022-12-27T06:16:04.248Z,2.4
2022-12-27T06:18:54.369Z,1.8
2022-12-27T06:21:41.855Z,1.6
2022-12-27T06:24:29.263Z,1.7
2022-12-27T06:27:16.559Z,1.4
2022-12-27T06:30:04.389Z,1.9
2022-12-27T06:32:53.400Z,1.7
2022-12-27T06:35:40.728Z,2
2022-12-27T06:38:28.010Z,2.3
2022-12-27T06:41:15.341Z,1.7
2022-12-27T06:44:04.321Z,2.3
2022-12-27T06:46:51.999Z,1.6
2022-12-27T06:49:39.374Z,1.6
2022-12-27T06:52:26.738Z,1.8
2022-12-27T06:55:13.993Z,1.1
2022-12-27T06:58:01.531Z,1.5
2022-12-27T07:00:48.894Z,2.2
2022-12-27T07:03:36.228Z,1.5
2022-12-27T07:06:23.599Z,1.6
2022-12-27T07:09:12.792Z,1.5
2022-12-27T07:12:00.506Z,1.6
2022-12-27T07:14:47.845Z,2
2022-12-27T07:17:35.249Z,1.8
2022-12-27T07:20:23.819Z,2.1
2022-12-27T07:23:17.317Z,2.2
2022-12-27T07:26:06.466Z,2.1
2022-12-27T07:28:56.193Z,1.5
2022-12-27T07:31:45.325Z,1.9
2022-12-27T07:34:32.762Z,2.1
2022-12-27T07:37:20.003Z,2.4
2022-12-27T07:40:07.284Z,1.7
2022-12-27T07:42:55.244Z,3.1
2022-12-27T07:45:42.541Z,1.7
2022-12-27T07:48:29.860Z,2.1
2022-12-27T07:51:17.707Z,1.7
2022-12-27T07:54:05.022Z,2.5
2022-12-27T07:56:52.526Z,2
2022-12-27T07:59:39.864Z,2.1
2022-12-27T08:02:27.385Z,2.2
2022-12-27T08:05:14.846Z,2.2
2022-12-27T08:08:02.210Z,2.4
2022-12-27T08:10:50.189Z,2.3
2022-12-27T08:13:37.769Z,2
2022-12-27T08:16:25.200Z,2.3
2022-12-27T08:19:12.783Z,2.1
2022-12-27T08:22:00.137Z,2.2
2022-12-27T08:24:49.786Z,2.4
2022-12-27T08:27:37.133Z,1.9
2022-12-27T08:30:24.501Z,2.7
2022-12-27T08:33:11.727Z,2.3
2022-12-27T08:35:59.920Z,2.1
2022-12-27T08:38:50.773Z,1.9
2022-12-27T08:41:39.065Z,2.2
2022-12-27T08:44:26.444Z,1.8
2022-12-27T08:47:14.055Z,2.1
2022-12-27T08:50:01.414Z,1.9
2022-12-27T08:52:52.030Z,2.4
2022-12-27T08:55:43.034Z,1.9
2022-12-27T08:58:30.439Z,2.2
2022-12-27T09:01:17.887Z,3.1
2022-12-27T09:04:06.952Z,2.1
2022-12-27T09:06:54.436Z,2.3
2022-12-27T09:09:42.002Z,2.4
2022-12-27T09:12:29.404Z,2.6
2022-12-27T09:15:18.314Z,1.6
2022-12-27T09:18:05.746Z,1.8
2022-12-27T09:20:53.267Z,2.1
2022-12-27T09:23:40.491Z,2
2022-12-27T09:26:28.816Z,2.3
2022-12-27T09:29:16.357Z,1.9
2022-12-27T09:32:03.831Z,2.4
2022-12-27T09:34:51.257Z,1.6
2022-12-27T09:37:38.821Z,4.8
2022-12-27T09:40:26.277Z,2.6
2022-12-27T09:43:23.867Z,2.1
2022-12-27T09:46:24.554Z,1.9
2022-12-27T09:49:18.955Z,2.1
2022-12-27T09:52:15.001Z,2.4
2022-12-27T09:55:06.275Z,2.4
2022-12-27T09:58:03.037Z,1.6
2022-12-27T10:01:03.267Z,2.5
2022-12-27T10:04:04.713Z,1.9
2022-12-27T10:06:57.674Z,2.6
2022-12-27T10:09:57.205Z,2.3
2022-12-27T10:12:54.733Z,2.2
2022-12-27T10:15:55.959Z,2.2
2022-12-27T10:18:55.511Z,2.3
2022-12-27T10:22:00.736Z,2.3
2022-12-27T10:25:01.318Z,2.3
2022-12-27T10:27:56.227Z,2.7
2022-12-27T10:30:47.229Z,2.2
2022-12-27T10:33:34.581Z,1.7
2022-12-27T10:36:22.581Z,1.8
2022-12-27T10:39:11.974Z,2.4
2022-12-27T10:42:03.949Z,1.7
2022-12-27T10:45:00.543Z,2
2022-12-27T10:48:21.677Z,1.9
2022-12-27T10:51:11.051Z,2.8
2022-12-27T10:53:59.863Z,2
2022-12-27T10:56:48.994Z,1.9
2022-12-27T10:59:36.635Z,2.3
2022-12-27T11:02:24.117Z,2
2022-12-27T11:05:11.512Z,1.7
2022-12-27T11:08:06.358Z,1.9
2022-12-27T11:11:05.967Z,1.7
2022-12-27T11:14:04.265Z,2.5
2022-12-27T11:16:57.716Z,2.4
2022-12-27T11:19:45.344Z,2.3
2022-12-27T11:22:33.292Z,2.3
2022-12-27T11:25:29.099Z,2.7
2022-12-27T11:28:18.258Z,2.9
2022-12-27T11:31:14.060Z,2
2022-12-27T11:34:04.873Z,1.8
2022-12-27T11:36:59.992Z,2.8
2022-12-27T11:39:51.914Z,2.8
2022-12-27T11:42:40.543Z,1.6
2022-12-27T11:45:31.777Z,1.9
2022-12-27T11:48:24.668Z,2.4
2022-12-27T11:51:16.116Z,2.6
2022-12-27T11:54:26.132Z,2.6
2022-12-27T11:57:34.503Z,2.4
2022-12-27T12:00:45.290Z,2.2
2022-12-27T12:03:43.107Z,2
2022-12-27T12:06:49.205Z,2.4
2022-12-27T12:09:45.477Z,1.8
2022-12-27T12:12:53.032Z,1.9
2022-12-27T12:16:05.120Z,2
2022-12-27T12:19:30.287Z,2.1
2022-12-27T12:23:07.742Z,2.1
2022-12-27T12:25:58.790Z,2.6
2022-12-27T12:28:59.678Z,2.1
2022-12-27T12:32:22.471Z,2.6
2022-12-27T12:35:19.769Z,1.7
2022-12-27T12:38:31.854Z,2.2
2022-12-27T12:41:27.892Z,2.1
2022-12-27T12:44:42.643Z,1.9
2022-12-27T12:48:06.652Z,2
2022-12-27T12:51:10.521Z,2.2
2022-12-27T12:54:15.393Z,2.2
2022-12-27T12:57:18.177Z,2.1
2022-12-27T13:00:20.209Z,2.6
2022-12-27T13:03:20.897Z,2
2022-12-27T13:06:30.582Z,2.3
2022-12-27T13:09:39.567Z,2.3
2022-12-27T13:12:38.775Z,3.5
2022-12-27T13:15:35.369Z,2.1
2022-12-27T13:18:39.176Z,2.5
2022-12-27T13:21:38.643Z,2.4
2022-12-27T13:24:47.018Z,2.8
2022-12-27T13:27:50.618Z,3.3
2022-12-27T13:30:47.450Z,2.3
2022-12-27T13:33:44.408Z,2.8
2022-12-27T13:36:46.408Z,2.9
2022-12-27T13:39:50.726Z,2.6
2022-12-27T13:42:59.177Z,2.5
2022-12-27T13:46:05.308Z,2
2022-12-27T13:49:11.173Z,2.6
2022-12-27T13:52:15.055Z,2.6
2022-12-27T13:55:21.828Z,2.2
2022-12-27T13:58:21.785Z,2.8
2022-12-27T14:01:35.802Z,2.4
2022-12-27T14:04:38.984Z,2.1
2022-12-27T14:07:42.803Z,2.2
2022-12-27T14:10:46.319Z,2.1
2022-12-27T14:13:35.484Z,1.9
2022-12-27T14:16:27.656Z,2.6
2022-12-27T14:19:27.111Z,2.5
2022-12-27T14:22:43.494Z,2.2
2022-12-27T14:26:11.255Z,1.6
2022-12-27T14:29:24.291Z,3.1
2022-12-27T14:32:31.794Z,2.2
2022-12-27T14:35:51.281Z,2.4
2022-12-27T14:39:32.182Z,2.8
2022-12-27T14:42:57.741Z,2.4
2022-12-27T14:46:22.693Z,2.9
2022-12-27T14:49:33.683Z,3.2
2022-12-27T14:52:54.397Z,2.7
2022-12-27T14:56:25.330Z,3.3
2022-12-27T14:59:18.521Z,3.1
2022-12-27T15:02:20.366Z,2.6
2022-12-27T15:05:27.401Z,2.9
2022-12-27T15:08:26.022Z,2.6
2022-12-27T15:11:26.538Z,2.8
2022-12-27T15:14:29.377Z,2.7
2022-12-27T15:17:32.917Z,2.6
2022-12-27T15:20:42.885Z,3.1
2022-12-27T15:23:44.120Z,3.7
2022-12-27T15:26:38.262Z,3.5
2022-12-27T15:29:36.138Z,3.2
2022-12-27T15:32:34.748Z,3.8
2022-12-27T15:35:31.673Z,3.1
2022-12-27T15:38:34.556Z,3.1
2022-12-27T15:41:29.013Z,3
2022-12-27T15:44:32.973Z,3.2
2022-12-27T15:47:32.404Z,3.2
2022-12-27T15:50:33.908Z,2.5
2022-12-27T15:53:32.795Z,2.7
2022-12-27T15:56:41.270Z,2.5
2022-12-27T15:59:46.179Z,2.7
2022-12-27T16:02:37.526Z,2.7
2022-12-27T16:05:36.814Z,3
2022-12-27T16:08:36.471Z,3
2022-12-27T16:11:25.033Z,2.2
2022-12-27T16:14:44.586Z,2.5
2022-12-27T16:17:32.994Z,2.1
2022-12-27T16:20:39.320Z,2.6
2022-12-27T16:23:26.672Z,2.5
2022-12-27T16:26:18.207Z,3.1
2022-12-27T16:29:10.258Z,3
2022-12-27T16:32:00.851Z,2.8
2022-12-27T16:35:06.779Z,3.1
2022-12-27T16:37:59.604Z,2.8
2022-12-27T16:40:48.999Z,3.2
2022-12-27T16:43:44.292Z,3
2022-12-27T16:46:39.537Z,3.3
2022-12-27T16:49:41.239Z,4
2022-12-27T16:52:45.642Z,3.2
2022-12-27T16:55:45.148Z,2.8
2022-12-27T16:58:59.789Z,2.7
2022-12-27T17:01:47.855Z,2.4
2022-12-27T17:04:43.691Z,3
2022-12-27T17:07:42.850Z,3.4
2022-12-27T17:10:35.989Z,3
2022-12-27T17:13:41.892Z,2.8
2022-12-27T17:16:35.212Z,3.1
2022-12-27T17:19:28.185Z,2.3
2022-12-27T17:22:22.017Z,3
2022-12-27T17:25:11.172Z,3.2
2022-12-27T17:28:01.636Z,3
2022-12-27T17:30:59.338Z,3.5
2022-12-27T17:33:56.756Z,4.4
2022-12-27T17:36:55.738Z,8.4
2022-12-27T17:39:49.812Z,4.3
2022-12-27T17:42:50.663Z,5.2
2022-12-27T17:46:19.838Z,3.6
2022-12-27T17:49:21.261Z,3
2022-12-27T17:52:13.252Z,3.9
2022-12-27T17:55:34.729Z,3.6
2022-12-27T17:58:58.107Z,3.7
2022-12-27T18:01:51.142Z,3.7
2022-12-27T18:04:42.152Z,3.1
2022-12-27T18:07:33.922Z,3.6
2022-12-27T18:10:21.201Z,4.1
2022-12-27T18:13:12.293Z,3.6
2022-12-27T18:16:04.544Z,4.7
2022-12-27T18:19:01.684Z,5.5
2022-12-27T18:21:49.946Z,3.5
2022-12-27T18:24:42.839Z,4.1
2022-12-27T18:27:30.201Z,4.7
2022-12-27T18:30:17.402Z,4.7
2022-12-27T18:33:04.739Z,4
2022-12-27T18:35:55.017Z,3.9
2022-12-27T18:38:45.740Z,4.2
2022-12-27T18:41:40.481Z,4.9
2022-12-27T18:44:32.345Z,4.7
2022-12-27T18:47:29.402Z,3.6
2022-12-27T18:50:20.455Z,3.8
2022-12-27T18:53:10.741Z,3.6
2022-12-27T18:56:08.443Z,4.4
2022-12-27T18:59:11.936Z,4.2
2022-12-27T19:02:07.302Z,3.9
2022-12-27T19:05:18.499Z,3.7
2022-12-27T19:08:14.968Z,4.1
2022-12-27T19:11:04.613Z,3.6
2022-12-27T19:13:52.685Z,4.4
2022-12-27T19:16:43.424Z,3.4
2022-12-27T19:19:36.568Z,4.3
2022-12-27T19:22:24.103Z,4
2022-12-27T19:25:19.449Z,4.2
2022-12-27T19:28:10.239Z,4.1
2022-12-27T19:31:11.216Z,4
2022-12-27T19:34:02.651Z,4.7
2022-12-27T19:36:54.135Z,5.9
2022-12-27T19:39:42.295Z,3.6
2022-12-27T19:42:32.667Z,3.8
2022-12-27T19:45:19.978Z,4
2022-12-27T19:48:07.388Z,3.9
2022-12-27T19:50:55.971Z,4.1
2022-12-27T19:53:44.304Z,4.2
2022-12-27T19:56:36.491Z,4
2022-12-27T19:59:23.858Z,3.1
2022-12-27T20:02:11.845Z,4.8
2022-12-27T20:04:59.479Z,3.8
2022-12-27T20:07:46.782Z,4.1
2022-12-27T20:10:35.136Z,5
2022-12-27T20:13:22.462Z,5.1
2022-12-27T20:16:11.334Z,4.7
2022-12-27T20:19:01.760Z,3.7
2022-12-27T20:21:49.268Z,3.9
2022-12-27T20:24:36.539Z,4.1
2022-12-27T20:27:24.023Z,3.8
2022-12-27T20:30:11.303Z,3.4
2022-12-27T20:32:59.187Z,3.6
2022-12-27T20:35:47.234Z,3.5
2022-12-27T20:38:41.623Z,4.3
2022-12-27T20:41:28.910Z,4.1
2022-12-27T20:44:16.315Z,3.9
2022-12-27T20:47:03.651Z,4
2022-12-27T20:49:51.122Z,4.4
2022-12-27T20:52:38.316Z,5
2022-12-27T20:55:25.558Z,4.4
2022-12-27T20:58:12.909Z,4.4
2022-12-27T21:01:00.371Z,5.2
2022-12-27T21:03:52.242Z,5.1
2022-12-27T21:06:40.520Z,4.5
2022-12-27T21:09:27.818Z,4.4
2022-12-27T21:12:15.634Z,4.9
2022-12-27T21:15:02.978Z,4.6
2022-12-27T21:17:52.860Z,4.8
2022-12-27T21:20:40.196Z,5.4
2022-12-27T21:23:27.532Z,4.3
2022-12-27T21:26:17.107Z,5
2022-12-27T21:29:06.759Z,4.8
2022-12-27T21:31:54.992Z,4
2022-12-27T21:34:42.258Z,4
2022-12-27T21:37:29.584Z,4.6
2022-12-27T21:40:17.042Z,4.1
2022-12-27T21:43:04.329Z,4.3
2022-12-27T21:45:51.699Z,4
2022-12-27T21:48:39.544Z,4.2
2022-12-27T21:51:27.116Z,5.2
2022-12-27T21:54:16.532Z,5.4
2022-12-27T21:57:04.236Z,5
2022-12-27T21:59:51.537Z,4.6
2022-12-27T22:02:40.671Z,4.7
2022-12-27T22:05:28.093Z,5.2
2022-12-27T22:08:15.839Z,5.2
2022-12-27T22:11:03.101Z,5.7
2022-12-27T22:13:51.076Z,5.8
2022-12-27T22:16:38.917Z,5.4
2022-12-27T22:19:26.196Z,5.7
2022-12-27T22:22:13.599Z,5
2022-12-27T22:25:01.058Z,5.5
2022-12-27T22:27:48.583Z,5.6
2022-12-27T22:30:35.869Z,6.4
2022-12-27T22:33:23.661Z,6.8
2022-12-27T22:36:10.967Z,5.9
2022-12-27T22:39:00.094Z,6.2
2022-12-27T22:41:48.268Z,6.4
2022-12-27T22:44:35.469Z,6
2022-12-27T22:47:27.604Z,6.3
2022-12-27T22:50:15.452Z,6.3
2022-12-27T22:53:03.633Z,6.4
2022-12-27T22:55:50.981Z,6.4
2022-12-27T22:58:38.191Z,5.4
2022-12-27T23:01:25.572Z,5.9
2022-12-27T23:04:15.443Z,5.7
2022-12-27T23:07:02.767Z,6.2
2022-12-27T23:09:50.608Z,6.6
2022-12-27T23:12:37.906Z,6.7
2022-12-27T23:15:25.196Z,5.6
2022-12-27T23:18:12.413Z,5.5
2022-12-27T23:21:21.409Z,6.8
2022-12-27T23:24:11.622Z,7.8
2022-12-27T23:26:59.204Z,5.7
2022-12-27T23:29:47.836Z,7.4
2022-12-27T23:32:35.563Z,9
2022-12-27T23:35:22.836Z,6
2022-12-27T23:38:10.266Z,6.3
2022-12-27T23:40:57.577Z,6.8
2022-12-27T23:43:53.927Z,6
2022-12-27T23:46:45.682Z,6.3
2022-12-27T23:49:33.548Z,7.2
2022-12-27T23:52:20.837Z,6.1
2022-12-27T23:55:08.203Z,6
2022-12-27T23:57:56.322Z,7.4
